Time;durP1;ratioP1;P1;durP2;ratioP2;P2;SDS_P1;SDS_P2;PMS_P1;PMS_P2;Temp;Humidity;BMP_temperature;BMP_pressure;BME280_temperature;BME280_humidity;BME280_pressure;Samples;Min_cycle;Max_cycle;Signal;HPM_P1;HPM_P2
2023/11/25 00:00:29;;;;;;;10.93;4.57;;;3.20;99.90;;;;;;5048547;28;20287;-75
2023/11/25 00:02:54;;;;;;;10.15;4.22;;;3.20;99.90;;;;;;5047352;28;20040;-75
2023/11/25 00:05:20;;;;;;;14.23;5.57;;;3.00;99.90;;;;;;5031005;28;20092;-75
2023/11/25 00:07:46;;;;;;;17.75;7.80;;;2.80;99.90;;;;;;5048322;28;20295;-75
2023/11/25 00:10:12;;;;;;;9.35;5.10;;;2.70;99.90;;;;;;5030530;28;20030;-75
2023/11/25 00:12:38;;;;;;;9.20;5.30;;;2.90;99.90;;;;;;5030497;28;20037;-75
2023/11/25 00:15:04;;;;;;;8.48;4.93;;;3.00;99.90;;;;;;5047129;28;20059;-75
2023/11/25 00:17:31;;;;;;;9.15;5.07;;;3.00;99.90;;;;;;5030542;28;20079;-75
2023/11/25 00:19:57;;;;;;;9.23;5.38;;;3.00;99.90;;;;;;5046821;28;20036;-75
2023/11/25 00:22:23;;;;;;;7.88;4.88;;;3.00;99.90;;;;;;5030458;28;20029;-75
2023/11/25 00:24:49;;;;;;;11.07;4.88;;;3.00;99.90;;;;;;5030295;28;20244;-75
2023/11/25 00:27:14;;;;;;;10.38;5.00;;;3.00;99.90;;;;;;5014232;28;20037;-76
2023/11/25 00:29:40;;;;;;;10.35;5.28;;;2.90;99.90;;;;;;5030665;28;20041;-76
2023/11/25 00:32:07;;;;;;;7.68;4.00;;;2.90;99.90;;;;;;5030544;28;20017;-75
2023/11/25 00:34:32;;;;;;;9.23;3.33;;;2.90;99.90;;;;;;5046871;28;20048;-76
2023/11/25 00:36:58;;;;;;;7.88;3.60;;;2.80;99.90;;;;;;5046839;28;20033;-76
2023/11/25 00:39:24;;;;;;;6.38;2.63;;;2.80;99.90;;;;;;5047110;28;20065;-76
2023/11/25 00:41:50;;;;;;;6.00;2.80;;;2.80;99.90;;;;;;5030574;28;20090;-76
2023/11/25 00:44:15;;;;;;;5.55;2.95;;;2.80;99.90;;;;;;5030209;28;20056;-76
2023/11/25 00:46:42;;;;;;;7.13;3.58;;;2.70;99.90;;;;;;5030352;28;20030;-76
2023/11/25 00:49:08;;;;;;;7.25;3.20;;;2.80;99.90;;;;;;5046719;28;20108;-76
2023/11/25 00:51:34;;;;;;;7.47;3.28;;;2.80;99.90;;;;;;5046782;28;20075;-76
2023/11/25 00:53:59;;;;;;;7.38;2.85;;;2.80;99.90;;;;;;5047743;28;20038;-75
2023/11/25 00:56:25;;;;;;;7.10;3.90;;;2.70;99.90;;;;;;5030367;28;20044;-75
2023/11/25 00:58:51;;;;;;;10.10;4.68;;;2.80;99.90;;;;;;5030424;28;20299;-76
2023/11/25 01:01:17;;;;;;;7.55;3.10;;;2.80;99.90;;;;;;5046686;28;20030;-75
2023/11/25 01:03:42;;;;;;;7.07;3.08;;;2.70;99.90;;;;;;5030191;28;20033;-75
2023/11/25 01:06:08;;;;;;;5.88;2.63;;;2.70;99.90;;;;;;5047253;28;20045;-76
2023/11/25 01:08:34;;;;;;;5.00;2.72;;;2.60;99.90;;;;;;5048394;28;20234;-75
2023/11/25 01:11:00;;;;;;;9.13;3.03;;;2.60;99.90;;;;;;5030542;28;20057;-75
2023/11/25 01:13:26;;;;;;;7.93;2.70;;;2.60;99.90;;;;;;5046433;28;20048;-76
2023/11/25 01:15:52;;;;;;;6.38;3.05;;;2.60;99.90;;;;;;5046290;28;20056;-75
2023/11/25 01:18:18;;;;;;;7.47;2.85;;;2.60;99.90;;;;;;5047082;28;20214;-76
2023/11/25 01:20:43;;;;;;;7.80;2.58;;;2.40;99.90;;;;;;5046243;28;20033;-76
2023/11/25 01:23:10;;;;;;;6.50;3.00;;;2.20;99.90;;;;;;5047247;28;20156;-76
2023/11/25 01:25:36;;;;;;;5.97;2.50;;;2.20;99.90;;;;;;5046370;28;20035;-76
2023/11/25 01:28:03;;;;;;;5.38;2.63;;;2.30;99.90;;;;;;5046134;28;20029;-76
2023/11/25 01:30:30;;;;;;;9.05;3.13;;;2.30;99.90;;;;;;5046195;28;20021;-76
2023/11/25 01:32:58;;;;;;;9.93;3.17;;;2.30;99.90;;;;;;5046099;28;20328;-76
2023/11/25 01:35:25;;;;;;;7.30;3.40;;;2.30;99.90;;;;;;5046640;28;20306;-76
2023/11/25 01:37:51;;;;;;;7.70;3.22;;;2.30;99.90;;;;;;5046804;28;20037;-76
2023/11/25 01:40:16;;;;;;;6.57;3.05;;;2.30;99.90;;;;;;5029364;28;20040;-77
2023/11/25 01:42:42;;;;;;;5.13;2.45;;;2.10;99.90;;;;;;5029435;28;20067;-76
2023/11/25 01:45:12;;;;;;;8.45;3.10;;;2.10;99.90;;;;;;5046911;28;20040;-76
2023/11/25 01:47:38;;;;;;;8.93;3.20;;;2.10;99.90;;;;;;5045822;28;20064;-76
2023/11/25 01:50:05;;;;;;;6.55;2.60;;;2.20;99.90;;;;;;5029106;28;20309;-76
2023/11/25 01:52:32;;;;;;;7.32;2.67;;;2.20;99.90;;;;;;5029386;28;20049;-77
2023/11/25 01:54:57;;;;;;;8.10;2.85;;;2.10;99.90;;;;;;5029384;28;20056;-76
2023/11/25 01:57:23;;;;;;;7.82;2.83;;;1.90;99.90;;;;;;5045541;28;20097;-76
2023/11/25 01:59:49;;;;;;;11.98;5.38;;;1.80;99.90;;;;;;5045628;28;20030;-77
2023/11/25 02:02:15;;;;;;;10.27;3.65;;;1.80;99.90;;;;;;5045480;28;20030;-77
2023/11/25 02:04:42;;;;;;;6.25;2.92;;;1.90;99.90;;;;;;5045484;28;20336;-76
2023/11/25 02:07:10;;;;;;;6.68;3.40;;;1.90;99.90;;;;;;5045505;28;20028;-76
2023/11/25 02:09:36;;;;;;;6.15;3.05;;;2.00;99.90;;;;;;5045476;28;20090;-76
2023/11/25 02:12:02;;;;;;;7.47;3.30;;;1.90;99.90;;;;;;5048139;28;20026;-76
2023/11/25 02:14:28;;;;;;;5.30;3.00;;;1.70;99.90;;;;;;5028926;28;20060;-76
2023/11/25 02:16:56;;;;;;;6.35;3.47;;;1.80;99.90;;;;;;5046370;28;20038;-76
2023/11/25 02:19:24;;;;;;;8.55;3.47;;;2.00;99.90;;;;;;5044386;28;20037;-76
2023/11/25 02:21:50;;;;;;;8.88;3.60;;;2.00;99.90;;;;;;5045140;28;20275;-76
2023/11/25 02:24:16;;;;;;;6.88;3.10;;;2.10;99.90;;;;;;5028655;28;20195;-77
2023/11/25 02:26:42;;;;;;;7.13;2.70;;;2.10;99.90;;;;;;5045135;28;20361;-77
2023/11/25 02:29:09;;;;;;;5.20;2.75;;;2.00;99.90;;;;;;5012478;28;20038;-76
2023/11/25 02:31:38;;;;;;;8.63;3.47;;;2.00;99.90;;;;;;5045670;28;20021;-76
2023/11/25 02:34:06;;;;;;;8.98;3.30;;;2.00;99.90;;;;;;5045806;28;20278;-77
2023/11/25 02:36:33;;;;;;;9.18;3.10;;;2.00;99.90;;;;;;5045033;28;20092;-76
2023/11/25 02:39:00;;;;;;;7.05;2.88;;;2.00;99.90;;;;;;5044885;28;20029;-76
2023/11/25 02:41:26;;;;;;;7.10;3.25;;;2.00;99.90;;;;;;5045561;28;20085;-77
2023/11/25 02:43:51;;;;;;;7.88;3.30;;;2.00;99.90;;;;;;5011954;28;20091;-77
2023/11/25 02:46:18;;;;;;;7.68;3.17;;;2.10;99.90;;;;;;5028224;28;20040;-77
2023/11/25 02:48:43;;;;;;;8.95;3.10;;;1.80;99.90;;;;;;5045229;28;20072;-77
2023/11/25 02:51:09;;;;;;;5.93;2.58;;;1.70;99.90;;;;;;5044462;28;20100;-76
2023/11/25 02:53:35;;;;;;;7.65;3.38;;;1.80;99.90;;;;;;5044691;28;20029;-76
2023/11/25 02:56:00;;;;;;;5.82;2.95;;;1.80;99.90;;;;;;5044603;28;20029;-77
2023/11/25 02:58:27;;;;;;;9.15;2.95;;;1.80;99.90;;;;;;5045622;28;20033;-76
2023/11/25 03:01:01;;;;;;;5.13;2.85;;;1.90;99.90;;;;;;5045655;28;20321;-76
2023/11/25 03:03:27;;;;;;;8.98;2.85;;;1.80;99.90;;;;;;5045244;28;20039;-76
2023/11/25 03:05:53;;;;;;;7.88;3.60;;;1.90;99.90;;;;;;5044513;28;20101;-76
2023/11/25 03:08:21;;;;;;;6.82;3.40;;;1.90;99.90;;;;;;5028181;28;20040;-76
2023/11/25 03:10:47;;;;;;;8.05;3.30;;;2.00;99.90;;;;;;5044590;28;20021;-76
2023/11/25 03:13:13;;;;;;;7.45;3.50;;;2.00;99.90;;;;;;5044527;28;20040;-76
2023/11/25 03:15:39;;;;;;;6.35;3.20;;;2.00;99.90;;;;;;5045325;28;20029;-76
2023/11/25 03:18:05;;;;;;;8.48;3.42;;;2.00;99.90;;;;;;5028032;28;20303;-76
2023/11/25 03:20:33;;;;;;;8.68;3.47;;;2.10;99.90;;;;;;5028038;28;20033;-76
2023/11/25 03:22:59;;;;;;;7.30;3.20;;;2.10;99.90;;;;;;5044284;28;20064;-76
2023/11/25 03:25:27;;;;;;;7.30;3.35;;;2.10;99.90;;;;;;5044272;28;20025;-77
2023/11/25 03:27:56;;;;;;;8.80;4.07;;;2.10;99.90;;;;;;5044223;28;20033;-76
2023/11/25 03:30:22;;;;;;;5.70;3.20;;;2.20;99.90;;;;;;5047701;28;20088;-77
2023/11/25 03:32:48;;;;;;;6.90;4.03;;;2.10;99.90;;;;;;5049454;28;20233;-77
2023/11/25 03:35:15;;;;;;;13.98;3.80;;;2.20;99.90;;;;;;5032003;28;20061;-76
2023/11/25 03:37:40;;;;;;;8.95;4.03;;;2.30;99.90;;;;;;5031856;28;20037;-76
2023/11/25 03:40:07;;;;;;;8.77;3.63;;;2.40;99.90;;;;;;5015298;28;20087;-77
2023/11/25 03:42:34;;;;;;;7.88;3.97;;;2.40;99.90;;;;;;5048652;28;20283;-77
2023/11/25 03:45:01;;;;;;;7.38;3.60;;;2.50;99.90;;;;;;5031722;28;20033;-75
2023/11/25 03:47:28;;;;;;;7.78;3.90;;;2.50;99.90;;;;;;5047899;28;20044;-74
2023/11/25 03:49:54;;;;;;;10.98;4.35;;;2.50;99.90;;;;;;5031384;28;20260;-74
2023/11/25 03:52:21;;;;;;;9.73;4.35;;;2.60;99.90;;;;;;5031587;28;20029;-74
2023/11/25 03:54:48;;;;;;;10.20;4.40;;;2.60;99.90;;;;;;5031571;28;20044;-75
2023/11/25 03:57:14;;;;;;;21.30;6.03;;;2.70;99.90;;;;;;5048891;28;20270;-74
2023/11/25 03:59:39;;;;;;;9.65;4.30;;;2.70;99.90;;;;;;5047788;28;20089;-74
2023/11/25 04:02:06;;;;;;;11.30;4.40;;;2.80;99.90;;;;;;5047765;28;20066;-74
2023/11/25 04:04:32;;;;;;;10.52;4.57;;;2.90;99.90;;;;;;5048658;28;20041;-74
2023/11/25 04:06:58;;;;;;;8.57;4.45;;;2.80;99.90;;;;;;5048774;28;20321;-75
2023/11/25 04:09:25;;;;;;;10.95;4.38;;;2.70;99.90;;;;;;5031239;28;20036;-75
2023/11/25 04:11:51;;;;;;;10.60;4.45;;;2.50;99.90;;;;;;5031179;28;20068;-74
2023/11/25 04:14:17;;;;;;;5.88;3.55;;;2.60;99.90;;;;;;5048226;28;20238;-74
2023/11/25 04:16:43;;;;;;;9.43;4.70;;;2.70;99.90;;;;;;5048140;28;20303;-74
2023/11/25 04:19:09;;;;;;;9.00;4.20;;;2.60;99.90;;;;;;5047557;28;20163;-74
2023/11/25 04:21:38;;;;;;;11.50;5.20;;;2.50;99.90;;;;;;5048153;28;20111;-74
2023/11/25 04:24:04;;;;;;;8.68;3.95;;;2.60;99.90;;;;;;5047295;28;20080;-74
2023/11/25 04:26:31;;;;;;;8.55;4.43;;;2.70;99.90;;;;;;5048405;28;20026;-74
2023/11/25 04:28:56;;;;;;;7.40;4.60;;;2.60;99.90;;;;;;5014685;28;20093;-74
2023/11/25 04:31:22;;;;;;;9.43;4.20;;;2.50;99.90;;;;;;5047076;28;20036;-74
2023/11/25 04:33:48;;;;;;;8.85;4.25;;;2.50;99.90;;;;;;5030521;28;20048;-74
2023/11/25 04:36:14;;;;;;;6.70;4.28;;;2.40;99.90;;;;;;5046901;28;20294;-74
2023/11/25 04:38:40;;;;;;;8.50;4.05;;;2.40;99.90;;;;;;5047028;28;20035;-74
2023/11/25 04:41:06;;;;;;;8.77;4.60;;;2.50;99.90;;;;;;5029738;28;20053;-74
2023/11/25 04:43:32;;;;;;;7.70;4.18;;;2.40;99.90;;;;;;5047741;28;20182;-74
2023/11/25 04:45:59;;;;;;;9.40;4.70;;;2.30;99.90;;;;;;5047806;28;20029;-74
2023/11/25 04:48:24;;;;;;;9.43;4.18;;;2.30;99.90;;;;;;5046865;28;20024;-74
2023/11/25 04:50:50;;;;;;;9.25;4.10;;;2.30;99.90;;;;;;5046657;28;20060;-76
2023/11/25 04:53:16;;;;;;;9.13;4.63;;;2.30;99.90;;;;;;5047030;28;20049;-76
2023/11/25 04:55:41;;;;;;;8.07;4.65;;;2.30;99.90;;;;;;5047733;28;20287;-76
2023/11/25 04:58:07;;;;;;;10.32;4.55;;;2.30;99.90;;;;;;5014096;28;20026;-76
2023/11/25 05:00:33;;;;;;;9.10;4.60;;;2.20;99.90;;;;;;5046827;28;20087;-77
2023/11/25 05:02:58;;;;;;;9.40;4.40;;;2.20;99.90;;;;;;5030255;28;20017;-76
2023/11/25 05:05:24;;;;;;;7.82;4.47;;;2.10;99.90;;;;;;5047363;28;20079;-76
2023/11/25 05:07:50;;;;;;;9.88;4.20;;;2.10;99.90;;;;;;5046385;28;20040;-76
2023/11/25 05:10:16;;;;;;;7.65;4.38;;;2.10;99.90;;;;;;5046291;28;20333;-76
2023/11/25 05:12:44;;;;;;;7.97;3.97;;;2.20;99.90;;;;;;5047639;28;20025;-77
2023/11/25 05:15:10;;;;;;;9.68;5.00;;;2.30;99.90;;;;;;5046633;28;20283;-76
2023/11/25 05:17:36;;;;;;;9.48;4.35;;;2.30;99.90;;;;;;5013720;28;20033;-77
2023/11/25 05:20:02;;;;;;;9.88;4.88;;;2.30;99.90;;;;;;5047361;28;20017;-76
2023/11/25 05:22:28;;;;;;;6.80;3.72;;;2.30;99.90;;;;;;5047274;28;20025;-76
2023/11/25 05:24:54;;;;;;;9.63;3.97;;;2.40;99.90;;;;;;5029582;28;20307;-77
2023/11/25 05:27:20;;;;;;;7.90;3.25;;;2.40;99.90;;;;;;5046090;28;20029;-77
2023/11/25 05:29:46;;;;;;;8.70;2.80;;;2.40;99.90;;;;;;5047031;28;20078;-76
2023/11/25 05:32:13;;;;;;;7.75;2.85;;;2.40;99.90;;;;;;5047234;28;20049;-76
2023/11/25 05:34:40;;;;;;;8.73;3.42;;;2.30;99.90;;;;;;5046130;28;20025;-77
2023/11/25 05:37:07;;;;;;;10.48;4.45;;;2.30;99.90;;;;;;5029826;28;20101;-77
2023/11/25 05:39:34;;;;;;;7.78;4.03;;;2.30;99.90;;;;;;5029695;28;20021;-77
2023/11/25 05:42:01;;;;;;;11.77;4.53;;;2.30;99.90;;;;;;5047037;28;20032;-76
2023/11/25 05:44:29;;;;;;;8.55;4.28;;;2.20;99.90;;;;;;5046824;28;20083;-76
2023/11/25 05:46:55;;;;;;;8.63;4.45;;;2.20;99.90;;;;;;5046719;28;20033;-76
2023/11/25 05:49:22;;;;;;;8.45;4.05;;;2.00;99.90;;;;;;5045636;28;20045;-77
2023/11/25 05:51:47;;;;;;;9.38;4.20;;;1.90;99.90;;;;;;5029475;28;20041;-77
2023/11/25 05:54:13;;;;;;;10.32;4.35;;;2.00;99.90;;;;;;5045694;28;20101;-77
2023/11/25 05:56:43;;;;;;;9.65;4.28;;;2.10;99.90;;;;;;5046480;28;20029;-77
2023/11/25 05:59:08;;;;;;;7.82;3.92;;;2.20;99.90;;;;;;5045621;28;20051;-77
2023/11/25 06:01:37;;;;;;;7.93;4.22;;;2.30;99.90;;;;;;5045324;28;20029;-76
2023/11/25 06:04:03;;;;;;;7.93;4.07;;;2.30;99.90;;;;;;5045398;28;20041;-76
2023/11/25 06:06:28;;;;;;;8.73;4.03;;;2.10;99.90;;;;;;5045480;28;20033;-76
2023/11/25 06:08:54;;;;;;;7.30;4.10;;;2.30;99.90;;;;;;5028807;28;20026;-77
2023/11/25 06:11:26;;;;;;;9.50;3.90;;;2.40;99.90;;;;;;5046382;28;20037;-77
2023/11/25 06:13:53;;;;;;;7.72;3.78;;;2.40;99.90;;;;;;5046502;28;20033;-76
2023/11/25 06:16:19;;;;;;;9.40;3.47;;;2.50;99.90;;;;;;5045433;28;20171;-77
2023/11/25 06:18:44;;;;;;;7.65;3.92;;;2.40;99.90;;;;;;5045145;28;20030;-76
2023/11/25 06:21:10;;;;;;;9.00;3.67;;;2.40;99.90;;;;;;5045343;28;20070;-77
2023/11/25 06:23:36;;;;;;;8.35;3.42;;;2.20;99.90;;;;;;5046094;28;20082;-76
2023/11/25 06:26:02;;;;;;;8.55;3.65;;;2.20;99.90;;;;;;5046212;28;20333;-76
2023/11/25 06:28:28;;;;;;;6.75;3.60;;;2.20;99.90;;;;;;5044912;28;20026;-77
2023/11/25 06:30:54;;;;;;;8.32;3.70;;;2.20;99.90;;;;;;5028513;28;20070;-77
2023/11/25 06:33:26;;;;;;;8.13;3.47;;;2.20;99.90;;;;;;5045016;28;20056;-76
2023/11/25 06:35:54;;;;;;;7.63;4.07;;;2.20;99.90;;;;;;5028989;28;20061;-77
2023/11/25 06:38:20;;;;;;;9.23;3.58;;;2.10;99.90;;;;;;5045083;28;20076;-76
2023/11/25 06:40:47;;;;;;;7.68;3.60;;;2.10;99.90;;;;;;5028486;28;20044;-76
2023/11/25 06:43:13;;;;;;;5.53;3.38;;;2.10;99.90;;;;;;5044684;28;20156;-77
2023/11/25 06:45:40;;;;;;;7.03;3.25;;;2.20;99.90;;;;;;5044735;28;20044;-76
2023/11/25 06:48:07;;;;;;;8.77;3.47;;;2.20;99.90;;;;;;5045795;28;20041;-77
2023/11/25 06:50:34;;;;;;;8.43;3.72;;;2.20;99.90;;;;;;5044495;28;20109;-76
2023/11/25 06:53:00;;;;;;;7.22;3.45;;;2.20;99.90;;;;;;5028359;28;20033;-77
2023/11/25 06:55:26;;;;;;;8.57;3.78;;;2.30;99.90;;;;;;5028129;28;20312;-76
2023/11/25 06:57:52;;;;;;;6.50;3.28;;;2.40;99.90;;;;;;5045651;28;20085;-76
2023/11/25 07:00:18;;;;;;;8.25;3.88;;;2.40;99.90;;;;;;5044576;28;20207;-76
2023/11/25 07:02:44;;;;;;;8.35;3.70;;;2.50;99.90;;;;;;5045255;28;20033;-77
2023/11/25 07:05:09;;;;;;;9.07;4.20;;;2.50;99.90;;;;;;5011177;28;20287;-77
2023/11/25 07:07:36;;;;;;;7.60;3.42;;;2.60;99.90;;;;;;5044344;28;20223;-76
2023/11/25 07:10:01;;;;;;;5.80;3.13;;;2.60;99.90;;;;;;5011500;28;20124;-76
2023/11/25 07:12:27;;;;;;;6.82;3.90;;;2.60;99.90;;;;;;5011471;28;20310;-77
2023/11/25 07:14:54;;;;;;;8.07;3.25;;;2.70;99.90;;;;;;5044348;28;20061;-75
2023/11/25 07:17:19;;;;;;;5.55;3.00;;;2.70;99.90;;;;;;5045195;28;20029;-73
2023/11/25 07:19:45;;;;;;;10.10;3.60;;;2.70;99.90;;;;;;5045372;28;20032;-77
2023/11/25 07:22:13;;;;;;;8.73;3.20;;;2.70;99.90;;;;;;5044334;28;20072;-76
2023/11/25 07:24:39;;;;;;;8.68;3.28;;;2.70;99.90;;;;;;5028073;28;20311;-76
2023/11/25 07:27:10;;;;;;;4.82;3.03;;;2.70;99.90;;;;;;5044123;28;20064;-77
2023/11/25 07:29:36;;;;;;;4.40;3.10;;;2.80;99.90;;;;;;5044234;28;20309;-76
2023/11/25 07:32:02;;;;;;;8.13;3.90;;;2.80;99.90;;;;;;5044203;28;20092;-76
2023/11/25 07:34:29;;;;;;;7.95;3.53;;;2.90;99.90;;;;;;5044194;28;20048;-74
2023/11/25 07:36:55;;;;;;;7.15;3.50;;;2.90;99.90;;;;;;5027788;28;20049;-74
2023/11/25 07:39:23;;;;;;;6.78;3.72;;;2.90;99.90;;;;;;5044992;28;20040;-74
2023/11/25 07:41:53;;;;;;;5.53;3.10;;;2.90;99.90;;;;;;5044120;28;20108;-74
2023/11/25 07:44:23;;;;;;;11.52;3.50;;;2.90;99.90;;;;;;5043751;28;20057;-76
2023/11/25 07:46:49;;;;;;;;;;;2.90;99.90;;;;;;5044220;28;20033;-74
2023/11/25 07:49:16;;;;;;;8.38;3.30;;;3.00;99.90;;;;;;5043770;28;19917;-76
2023/11/25 07:51:41;;;;;;;5.88;2.90;;;3.10;99.90;;;;;;5043954;28;20112;-74
2023/11/25 07:54:11;;;;;;;5.07;2.53;;;3.10;99.90;;;;;;5027626;28;20044;-74
2023/11/25 07:56:37;;;;;;;6.32;2.92;;;3.10;99.90;;;;;;5044538;28;20112;-74
2023/11/25 07:59:03;;;;;;;6.40;2.78;;;3.10;99.90;;;;;;5043820;28;20286;-74
2023/11/25 08:01:29;;;;;;;5.88;2.85;;;3.20;99.90;;;;;;5043875;28;20037;-75
2023/11/25 08:03:55;;;;;;;8.52;3.15;;;3.20;99.90;;;;;;5043753;28;20109;-75
2023/11/25 08:06:25;;;;;;;8.48;2.83;;;3.20;99.90;;;;;;5044558;28;20052;-74
2023/11/25 08:08:54;;;;;;;6.32;4.07;;;3.20;99.90;;;;;;5012426;28;20029;-75
2023/11/25 08:11:26;;;;;;;9.18;3.05;;;3.20;99.90;;;;;;5043860;28;20036;-75
2023/11/25 08:13:52;;;;;;;7.53;3.08;;;3.30;99.90;;;;;;5043762;28;20029;-75
2023/11/25 08:16:19;;;;;;;8.13;2.92;;;3.40;99.90;;;;;;5045365;28;20029;-75
2023/11/25 08:18:47;;;;;;;10.02;4.07;;;3.40;99.90;;;;;;5047626;28;20287;-74
2023/11/25 08:21:13;;;;;;;10.73;3.88;;;3.40;99.90;;;;;;5047339;28;20105;-74
2023/11/25 08:23:41;;;;;;;5.15;2.67;;;3.40;99.90;;;;;;5047184;28;20025;-75
2023/11/25 08:26:19;;;;;;;24.20;8.27;;;3.50;99.90;;;;;;5031033;28;20296;-75
2023/11/25 08:28:45;;;;;;;12.60;5.90;;;3.60;99.90;;;;;;5030999;28;20025;-75
2023/11/25 08:31:11;;;;;;;11.68;4.78;;;3.60;99.90;;;;;;5048026;28;20072;-74
2023/11/25 08:33:39;;;;;;;8.77;4.38;;;3.70;99.90;;;;;;5048038;28;20059;-75
2023/11/25 08:36:06;;;;;;;12.10;3.80;;;3.70;99.90;;;;;;5046895;28;20234;-75
2023/11/25 08:38:31;;;;;;;7.13;3.72;;;3.70;99.90;;;;;;5046799;28;20033;-75
2023/11/25 08:40:57;;;;;;;13.88;6.32;;;3.80;99.90;;;;;;5047800;28;20030;-74
2023/11/25 08:43:23;;;;;;;7.97;4.47;;;3.80;99.90;;;;;;5046600;28;20037;-74
2023/11/25 08:45:49;;;;;;;9.32;4.25;;;3.90;99.90;;;;;;5046899;28;20027;-74
2023/11/25 08:48:15;;;;;;;10.57;4.40;;;3.90;99.90;;;;;;5046756;28;20291;-74
2023/11/25 08:50:42;;;;;;;8.57;3.85;;;3.90;99.90;;;;;;5030199;28;20056;-75
2023/11/25 08:53:08;;;;;;;8.98;3.90;;;4.00;99.90;;;;;;5046840;28;20025;-75
2023/11/25 08:55:34;;;;;;;6.88;3.10;;;4.00;99.90;;;;;;5047188;28;20287;-75
2023/11/25 08:58:00;;;;;;;7.13;3.45;;;4.10;99.90;;;;;;5047581;28;20026;-74
2023/11/25 09:00:29;;;;;;;7.47;3.10;;;4.10;99.90;;;;;;5046405;28;20087;-75
2023/11/25 09:02:57;;;;;;;10.30;4.13;;;4.10;99.90;;;;;;5047274;28;20186;-76
2023/11/25 09:05:22;;;;;;;8.38;3.50;;;4.10;99.90;;;;;;5030296;28;20021;-74
2023/11/25 09:07:52;;;;;;;7.55;4.00;;;4.10;99.90;;;;;;5029779;28;20306;-75
2023/11/25 09:10:18;;;;;;;8.45;4.53;;;4.20;99.90;;;;;;5029882;28;20028;-74
2023/11/25 09:12:45;;;;;;;8.85;4.50;;;4.30;99.90;;;;;;5046172;28;20061;-75
2023/11/25 09:15:13;;;;;;;9.98;5.18;;;4.40;99.90;;;;;;5046819;28;20191;-74
2023/11/25 09:17:39;;;;;;;8.07;4.85;;;4.40;99.90;;;;;;5030014;28;20286;-74
2023/11/25 09:20:11;;;;;;;19.35;8.20;;;4.50;99.90;;;;;;5045952;28;20286;-75
2023/11/25 09:22:41;;;;;;;11.07;4.95;;;4.60;99.90;;;;;;5046816;28;20033;-74
2023/11/25 09:25:10;;;;;;;9.52;5.00;;;4.50;99.90;;;;;;5047014;28;20029;-75
2023/11/25 09:27:36;;;;;;;9.23;4.30;;;4.40;99.90;;;;;;5029518;28;20025;-75
2023/11/25 09:30:02;;;;;;;10.50;5.13;;;4.40;99.90;;;;;;5029206;28;20035;-74
2023/11/25 09:32:28;;;;;;;9.30;4.05;;;4.50;99.90;;;;;;5045761;28;20191;-74
2023/11/25 09:34:55;;;;;;;11.32;4.45;;;4.60;99.90;;;;;;5046635;28;20025;-75
2023/11/25 09:37:20;;;;;;;5.97;4.13;;;4.70;99.90;;;;;;5045809;28;20044;-75
2023/11/25 09:39:46;;;;;;;9.60;4.78;;;4.80;99.90;;;;;;5045768;28;20041;-74
2023/11/25 09:42:12;;;;;;;10.05;5.00;;;4.80;99.90;;;;;;5045620;28;20025;-77
2023/11/25 09:44:38;;;;;;;14.60;4.50;;;4.80;99.90;;;;;;5045348;28;20179;-75
2023/11/25 09:47:04;;;;;;;9.27;3.97;;;5.00;99.90;;;;;;5028977;28;20120;-75
2023/11/25 09:49:30;;;;;;;7.13;3.58;;;5.00;99.90;;;;;;5028814;28;20311;-75
2023/11/25 09:52:00;;;;;;;8.00;3.33;;;5.10;99.90;;;;;;5046486;28;20072;-75
2023/11/25 09:54:26;;;;;;;;;;;5.20;99.90;;;;;;5045757;28;20105;-75
2023/11/25 09:56:51;;;;;;;9.18;3.95;;;5.20;99.90;;;;;;5046050;28;19916;-75
2023/11/25 09:59:20;;;;;;;11.55;4.95;;;5.30;99.90;;;;;;5046383;28;20060;-75
2023/11/25 10:01:46;;;;;;;13.48;7.57;;;5.30;99.90;;;;;;5046627;28;20052;-75
2023/11/25 10:04:15;;;;;;;12.93;7.88;;;5.10;99.90;;;;;;5028665;28;20029;-75
2023/11/25 10:06:41;;;;;;;10.63;5.53;;;4.90;99.90;;;;;;5045266;28;20222;-75
2023/11/25 10:09:09;;;;;;;10.93;5.20;;;4.70;99.90;;;;;;5045322;28;20282;-75
2023/11/25 10:11:35;;;;;;;8.82;4.95;;;4.80;99.90;;;;;;5045277;28;20025;-75
2023/11/25 10:14:03;;;;;;;12.93;5.45;;;4.80;99.90;;;;;;5028635;28;20025;-75
2023/11/25 10:16:29;;;;;;;9.95;5.15;;;4.90;99.90;;;;;;5012824;28;20041;-75
2023/11/25 10:18:56;;;;;;;9.05;5.18;;;5.10;99.90;;;;;;5028508;28;20035;-75
2023/11/25 10:21:22;;;;;;;9.23;4.70;;;5.30;99.90;;;;;;5012662;28;20029;-75
2023/11/25 10:23:47;;;;;;;9.65;4.45;;;5.30;99.90;;;;;;5028318;28;20087;-76
2023/11/25 10:26:16;;;;;;;11.73;5.10;;;5.50;99.90;;;;;;5028445;28;20056;-75
2023/11/25 10:28:43;;;;;;;11.07;4.88;;;5.60;99.90;;;;;;5044764;28;20017;-75
2023/11/25 10:31:09;;;;;;;14.27;6.10;;;5.60;99.90;;;;;;5028476;28;20037;-76
2023/11/25 10:33:37;;;;;;;12.98;7.30;;;5.70;99.90;;;;;;5044646;28;20025;-75
2023/11/25 10:36:03;;;;;;;14.35;7.88;;;5.70;99.90;;;;;;5045217;28;20033;-76
2023/11/25 10:38:29;;;;;;;10.45;6.25;;;5.80;99.90;;;;;;5027719;28;20033;-75
2023/11/25 10:41:02;;;;;;;9.05;5.38;;;5.90;99.90;;;;;;5027451;28;20026;-75
2023/11/25 10:43:29;;;;;;;10.20;4.80;;;5.80;99.90;;;;;;5028058;28;20029;-75
2023/11/25 10:46:09;;;;;;;12.15;4.95;;;5.90;99.90;;;;;;5028181;28;20053;-75
2023/11/25 10:48:41;;;;;;;9.80;4.00;;;5.90;99.90;;;;;;5044155;28;20026;-74
2023/11/25 10:51:08;;;;;;;9.13;4.82;;;6.00;99.90;;;;;;5028689;28;20029;-75
2023/11/25 10:53:36;;;;;;;21.83;13.27;;;6.00;99.90;;;;;;5044304;28;20207;-75
2023/11/25 10:56:03;;;;;;;14.07;5.95;;;6.00;99.90;;;;;;5043729;28;20029;-75
2023/11/25 10:58:30;;;;;;;9.15;3.85;;;5.90;99.90;;;;;;5044088;28;20031;-76
2023/11/25 11:00:56;;;;;;;15.38;11.55;;;5.90;99.90;;;;;;5027268;28;20025;-75
2023/11/25 11:03:24;;;;;;;19.52;14.77;;;6.00;99.90;;;;;;5045088;28;20060;-75
2023/11/25 11:06:01;;;;;;;12.13;10.80;;;6.10;99.90;;;;;;5027952;28;20056;-75
2023/11/25 11:08:34;;;;;;;12.63;4.30;;;6.20;99.90;;;;;;5011682;28;20286;-76
2023/11/25 11:11:11;;;;;;;8.90;4.65;;;6.30;99.90;;;;;;5027630;28;20298;-74
2023/11/25 11:13:42;;;;;;;7.40;3.95;;;6.30;99.90;;;;;;5027506;28;20033;-76
2023/11/25 11:16:34;;;;;;;7.05;3.53;;;6.40;99.90;;;;;;5043980;28;20075;-74
2023/11/25 11:19:00;;;;;;;9.00;4.35;;;6.60;99.90;;;;;;5038128;28;20171;-76
2023/11/25 11:21:28;;;;;;;11.95;6.30;;;6.80;99.90;;;;;;5043763;28;20041;-75
2023/11/25 11:23:53;;;;;;;11.68;5.80;;;7.00;99.90;;;;;;5044772;28;20037;-76
2023/11/25 11:26:31;;;;;;;12.40;4.88;;;7.10;99.90;;;;;;5011107;28;20064;-76
2023/11/25 11:29:13;;;;;;;7.93;3.70;;;7.20;99.90;;;;;;5044045;28;20029;-78
2023/11/25 11:31:42;;;;;;;5.00;2.60;;;7.30;99.90;;;;;;5044423;28;20026;-78
2023/11/25 11:34:07;;;;;;;6.18;2.88;;;7.40;99.90;;;;;;5045190;28;20056;-76
2023/11/25 11:36:33;;;;;;;11.90;3.75;;;7.40;99.90;;;;;;5043661;28;20295;-76
2023/11/25 11:38:58;;;;;;;9.93;3.33;;;7.40;99.90;;;;;;5010936;28;20108;-76
2023/11/25 11:41:25;;;;;;;6.22;3.20;;;7.30;99.90;;;;;;5044946;28;20041;-76
2023/11/25 11:44:11;;;;;;;17.77;13.20;;;7.30;99.90;;;;;;5027425;28;20101;-76
2023/11/25 11:46:38;;;;;;;16.77;10.63;;;7.30;99.90;;;;;;5027482;28;20218;-76
2023/11/25 11:49:08;;;;;;;15.65;8.88;;;7.40;99.90;;;;;;5026963;28;20041;-76
2023/11/25 11:51:34;;;;;;;18.30;7.78;;;7.50;99.90;;;;;;5047346;28;20029;-76
2023/11/25 11:54:23;;;;;;;16.13;8.38;;;7.50;99.90;;;;;;5014898;28;20041;-76
2023/11/25 11:57:05;;;;;;;13.75;8.20;;;7.70;99.90;;;;;;5048269;28;20280;-77
2023/11/25 11:59:59;;;;;;;26.48;15.25;;;7.80;99.90;;;;;;5014496;28;20041;-76
2023/11/25 12:02:31;;;;;;;19.25;8.52;;;7.90;99.90;;;;;;5048089;28;20239;-76
2023/11/25 12:04:58;;;;;;;14.15;8.05;;;8.00;99.90;;;;;;5031242;28;20041;-76
2023/11/25 12:07:26;;;;;;;14.00;7.18;;;8.00;99.90;;;;;;5047227;28;20052;-77
2023/11/25 12:09:53;;;;;;;12.35;6.18;;;8.00;99.90;;;;;;5031116;28;20370;-76
2023/11/25 12:12:19;;;;;;;10.73;4.60;;;7.90;99.90;;;;;;5048194;28;20017;-76
2023/11/25 12:14:47;;;;;;;11.88;3.83;;;7.80;99.90;;;;;;5047870;28;20033;-77
2023/11/25 12:17:13;;;;;;;28.35;13.18;;;7.70;99.90;;;;;;5046991;28;20025;-76
2023/11/25 12:19:39;;;;;;;15.77;5.07;;;7.70;99.90;;;;;;5047001;28;20038;-76
2023/11/25 12:22:05;;;;;;;24.23;14.02;;;7.60;99.90;;;;;;5030943;28;20076;-76
2023/11/25 12:24:35;;;;;;;18.27;12.35;;;7.60;99.90;;;;;;5047017;28;20092;-76
2023/11/25 12:27:03;;;;;;;16.98;8.57;;;7.60;99.90;;;;;;5047084;28;20025;-76
2023/11/25 12:29:33;;;;;;;13.77;9.13;;;7.60;99.90;;;;;;5047866;28;20037;-75
2023/11/25 12:31:59;;;;;;;16.80;7.28;;;7.60;99.90;;;;;;5014267;28;20286;-76
2023/11/25 12:34:25;;;;;;;10.57;5.13;;;7.60;99.90;;;;;;5030327;28;20083;-76
2023/11/25 12:36:50;;;;;;;11.93;5.90;;;7.70;99.90;;;;;;5030336;28;20215;-76
2023/11/25 12:39:16;;;;;;;12.63;5.85;;;7.70;99.90;;;;;;5030493;28;20029;-76
2023/11/25 12:41:43;;;;;;;11.07;4.85;;;7.80;99.90;;;;;;5047870;28;20191;-76
2023/11/25 12:44:12;;;;;;;12.85;4.13;;;7.70;99.90;;;;;;5046644;28;20048;-76
2023/11/25 12:46:38;;;;;;;9.45;4.18;;;7.70;99.90;;;;;;5046618;28;20071;-75
2023/11/25 12:49:23;;;;;;;11.07;5.10;;;7.80;99.90;;;;;;5046014;28;20037;-76
2023/11/25 12:51:50;;;;;;;9.18;3.53;;;7.90;99.90;;;;;;5047611;28;20022;-76
2023/11/25 12:54:16;;;;;;;11.15;3.50;;;7.90;99.90;;;;;;5047296;28;20263;-76